createdAt,value
2023-01-15T00:01:35.830Z,5.15
2023-01-15T00:04:09.730Z,5.14
2023-01-15T00:06:44.123Z,5.14
2023-01-15T00:09:17.701Z,5.14
2023-01-15T00:11:49.927Z,5.13
2023-01-15T00:14:22.249Z,5.11
2023-01-15T00:16:55.405Z,5.09
2023-01-15T00:19:27.948Z,5.08
2023-01-15T00:22:01.518Z,5.04
2023-01-15T00:24:51.043Z,5.03
2023-01-15T00:27:41.945Z,5.01
2023-01-15T00:30:17.874Z,5.02
2023-01-15T00:32:50.287Z,5.01
2023-01-15T00:35:24.550Z,5.01
2023-01-15T00:37:56.870Z,4.99
2023-01-15T00:40:29.198Z,4.98
2023-01-15T00:43:01.352Z,4.98
2023-01-15T00:45:33.555Z,4.98
2023-01-15T00:48:05.812Z,4.99
2023-01-15T00:50:38.101Z,5.01
2023-01-15T00:53:10.277Z,5.01
2023-01-15T00:55:42.441Z,5.01
2023-01-15T00:58:14.781Z,4.98
2023-01-15T01:00:47.127Z,4.92
2023-01-15T01:03:19.333Z,4.87
2023-01-15T01:05:51.951Z,4.83
2023-01-15T01:08:24.316Z,4.79
2023-01-15T01:11:06.296Z,4.77
2023-01-15T01:13:40.377Z,4.76
2023-01-15T01:16:25.653Z,4.74
2023-01-15T01:18:57.957Z,4.74
2023-01-15T01:21:31.221Z,4.73
2023-01-15T01:24:03.956Z,4.75
2023-01-15T01:26:36.695Z,4.73
2023-01-15T01:29:08.973Z,4.69
2023-01-15T01:31:41.457Z,4.66
2023-01-15T01:34:15.048Z,4.62
2023-01-15T01:36:47.761Z,4.62
2023-01-15T01:39:20.842Z,4.63
2023-01-15T01:41:53.019Z,4.66
2023-01-15T01:45:08.149Z,4.64
2023-01-15T01:47:40.524Z,4.61
2023-01-15T01:50:15.690Z,4.61
2023-01-15T01:52:52.733Z,4.61
2023-01-15T01:55:27.905Z,4.59
2023-01-15T01:58:03.553Z,4.59
2023-01-15T02:00:37.318Z,4.58
2023-01-15T02:03:11.965Z,4.57
2023-01-15T02:05:50.371Z,4.55
2023-01-15T02:08:23.042Z,4.53
2023-01-15T02:10:57.483Z,4.52
2023-01-15T02:13:37.488Z,4.52
2023-01-15T02:16:14.985Z,4.52
2023-01-15T02:18:55.766Z,4.53
2023-01-15T02:21:40.120Z,4.56
2023-01-15T02:24:20.334Z,4.60
2023-01-15T02:27:08.652Z,4.61
2023-01-15T02:29:57.801Z,4.63
2023-01-15T02:32:41.329Z,4.60
2023-01-15T02:35:20.073Z,4.64
2023-01-15T02:37:56.616Z,4.65
2023-01-15T02:40:29.719Z,4.66
2023-01-15T02:43:02.579Z,4.67
2023-01-15T02:45:38.050Z,4.68
2023-01-15T02:48:15.064Z,4.68
2023-01-15T02:50:53.746Z,4.67
2023-01-15T02:53:31.074Z,4.65
2023-01-15T02:56:09.346Z,4.62
2023-01-15T02:58:44.020Z,4.58
2023-01-15T03:01:20.046Z,4.55
2023-01-15T03:03:57.975Z,4.50
2023-01-15T03:06:39.275Z,4.48
2023-01-15T03:09:12.327Z,4.46
2023-01-15T03:11:50.732Z,4.45
2023-01-15T03:14:27.027Z,4.46
2023-01-15T03:17:06.405Z,4.46
2023-01-15T03:19:45.114Z,4.46
2023-01-15T03:22:22.991Z,4.44
2023-01-15T03:24:58.902Z,4.42
2023-01-15T03:27:29.768Z,4.42
2023-01-15T03:30:07.456Z,4.41
2023-01-15T03:32:40.429Z,4.42
2023-01-15T03:35:39.573Z,4.42
2023-01-15T03:38:12.195Z,4.41
2023-01-15T03:40:50.350Z,4.40
2023-01-15T03:43:43.143Z,4.35
2023-01-15T03:46:37.452Z,4.34
2023-01-15T03:49:15.722Z,4.34
2023-01-15T03:51:57.211Z,4.37
2023-01-15T03:54:37.069Z,4.39
2023-01-15T03:57:16.544Z,4.39
2023-01-15T03:59:54.571Z,4.39
2023-01-15T04:02:28.664Z,4.40
2023-01-15T04:05:01.947Z,4.43
2023-01-15T04:07:34.805Z,4.44
2023-01-15T04:10:10.969Z,4.46
2023-01-15T04:12:43.265Z,4.49
2023-01-15T04:15:15.641Z,4.51
2023-01-15T04:17:47.874Z,4.52
2023-01-15T04:20:20.508Z,4.52
2023-01-15T04:22:52.795Z,4.52
2023-01-15T04:25:24.946Z,4.51
2023-01-15T04:27:58.092Z,4.49
2023-01-15T04:30:30.420Z,4.45
2023-01-15T04:33:03.097Z,4.44
2023-01-15T04:35:36.241Z,4.44
2023-01-15T04:38:08.599Z,4.44
2023-01-15T04:40:58.270Z,4.46
2023-01-15T04:43:47.831Z,4.46
2023-01-15T04:46:24.330Z,4.50
2023-01-15T04:48:56.529Z,4.51
2023-01-15T04:51:29.024Z,4.52
2023-01-15T04:54:02.925Z,4.56
2023-01-15T04:56:38.964Z,4.59
2023-01-15T04:59:09.779Z,4.60
2023-01-15T05:01:51.288Z,4.58
2023-01-15T05:04:26.765Z,4.57
2023-01-15T05:06:59.020Z,4.58
2023-01-15T05:09:31.231Z,4.61
2023-01-15T05:12:03.814Z,4.64
2023-01-15T05:14:36.034Z,4.68
2023-01-15T05:17:08.341Z,4.70
2023-01-15T05:19:40.726Z,4.70
2023-01-15T05:22:12.969Z,4.72
2023-01-15T05:24:45.218Z,4.73
2023-01-15T05:27:17.380Z,4.75
2023-01-15T05:29:49.622Z,4.76
2023-01-15T05:32:21.806Z,4.77
2023-01-15T05:34:54.138Z,4.74
2023-01-15T05:37:26.386Z,4.72
2023-01-15T05:39:58.589Z,4.74
2023-01-15T05:42:30.873Z,4.77
2023-01-15T05:45:03.222Z,4.81
2023-01-15T05:47:36.122Z,4.83
2023-01-15T05:50:09.810Z,4.85
2023-01-15T05:52:42.241Z,4.88
2023-01-15T05:55:14.398Z,4.89
2023-01-15T05:57:46.557Z,4.91
2023-01-15T06:00:20.974Z,4.92
2023-01-15T06:02:53.460Z,4.89
2023-01-15T06:05:25.801Z,4.90
2023-01-15T06:07:59.938Z,4.92
2023-01-15T06:10:33.338Z,4.91
2023-01-15T06:13:05.607Z,4.91
2023-01-15T06:15:38.079Z,4.92
2023-01-15T06:18:10.363Z,4.93
2023-01-15T06:20:43.922Z,4.93
2023-01-15T06:23:16.070Z,4.95
2023-01-15T06:25:48.756Z,4.93
2023-01-15T06:28:21.006Z,4.95
2023-01-15T06:30:53.516Z,4.95
2023-01-15T06:33:26.179Z,4.96
2023-01-15T06:35:58.344Z,4.98
2023-01-15T06:38:30.897Z,5.00
2023-01-15T06:41:04.768Z,4.98
2023-01-15T06:43:54.280Z,4.93
2023-01-15T06:46:43.926Z,4.94
2023-01-15T06:49:16.204Z,4.95
2023-01-15T06:51:48.522Z,4.95
2023-01-15T06:54:20.797Z,4.97
2023-01-15T06:56:53.168Z,5.00
2023-01-15T06:59:25.417Z,4.99
2023-01-15T07:01:57.715Z,5.07
2023-01-15T07:04:29.950Z,5.07
2023-01-15T07:07:02.186Z,5.13
2023-01-15T07:09:34.473Z,5.16
2023-01-15T07:12:07.228Z,5.16
2023-01-15T07:14:39.872Z,5.18
2023-01-15T07:17:12.185Z,5.17
2023-01-15T07:19:45.337Z,5.18
2023-01-15T07:22:17.537Z,5.19
2023-01-15T07:24:49.694Z,5.21
2023-01-15T07:27:21.876Z,5.19
2023-01-15T07:29:54.192Z,5.19
2023-01-15T07:32:30.112Z,5.19
2023-01-15T07:35:00.572Z,5.20
2023-01-15T07:37:32.720Z,5.19
2023-01-15T07:40:05.263Z,5.18
2023-01-15T07:42:55.925Z,5.20
2023-01-15T07:45:45.854Z,5.21
2023-01-15T07:48:35.307Z,5.21
2023-01-15T07:51:07.979Z,5.20
2023-01-15T07:53:40.604Z,5.21
2023-01-15T07:56:13.946Z,5.20
2023-01-15T07:58:50.296Z,5.19
2023-01-15T08:01:22.700Z,5.18
2023-01-15T08:03:55.023Z,5.15
2023-01-15T08:06:27.337Z,5.15
2023-01-15T08:08:59.613Z,5.09
2023-01-15T08:11:49.278Z,5.05
2023-01-15T08:14:35.635Z,5.01
2023-01-15T08:17:07.855Z,5.02
2023-01-15T08:19:40.045Z,5.03
2023-01-15T08:22:13.381Z,5.03
2023-01-15T08:24:45.585Z,5.03
2023-01-15T08:27:17.789Z,5.01
2023-01-15T08:29:49.960Z,4.99
2023-01-15T08:32:22.186Z,4.99
2023-01-15T08:34:57.361Z,4.98
2023-01-15T08:37:29.657Z,4.96
2023-01-15T08:40:01.951Z,4.99
2023-01-15T08:42:34.167Z,5.01
2023-01-15T08:45:07.523Z,5.03
2023-01-15T08:47:39.920Z,5.06
2023-01-15T08:50:14.067Z,5.09
2023-01-15T08:52:46.345Z,5.11
2023-01-15T08:55:18.810Z,5.11
2023-01-15T08:57:51.995Z,5.12
2023-01-15T09:00:25.191Z,5.12
2023-01-15T09:02:57.418Z,5.13
2023-01-15T09:05:29.749Z,5.16
2023-01-15T09:08:01.962Z,5.19
2023-01-15T09:10:34.426Z,5.21
2023-01-15T09:13:07.353Z,5.23
2023-01-15T09:15:39.513Z,5.26
2023-01-15T09:18:12.821Z,5.30
2023-01-15T09:20:45.417Z,5.32
2023-01-15T09:23:17.605Z,5.36
2023-01-15T09:25:56.696Z,5.42
2023-01-15T09:28:29.675Z,5.48
2023-01-15T09:31:03.541Z,5.49
2023-01-15T09:33:35.808Z,5.50
2023-01-15T09:36:14.328Z,5.50
2023-01-15T09:38:46.654Z,5.49
2023-01-15T09:41:36.657Z,5.53
2023-01-15T09:44:21.764Z,5.57
2023-01-15T09:47:03.065Z,5.62
2023-01-15T09:49:52.197Z,5.67
2023-01-15T09:52:34.230Z,5.69
2023-01-15T09:55:15.303Z,5.70
2023-01-15T09:57:50.933Z,5.72
2023-01-15T10:00:26.241Z,5.74
2023-01-15T10:03:06.108Z,5.72
2023-01-15T10:05:44.557Z,5.71
2023-01-15T10:08:21.499Z,5.71
2023-01-15T10:10:57.919Z,5.70
2023-01-15T10:13:40.286Z,5.72
2023-01-15T10:16:14.127Z,5.77
2023-01-15T10:18:46.914Z,5.79
2023-01-15T10:21:32.983Z,5.81
2023-01-15T10:24:16.194Z,5.82
2023-01-15T10:26:54.908Z,5.85
2023-01-15T10:29:33.419Z,5.85
2023-01-15T10:32:23.536Z,5.84
2023-01-15T10:35:13.358Z,5.84
2023-01-15T10:37:50.691Z,5.85
2023-01-15T10:40:49.687Z,5.90
2023-01-15T10:43:26.354Z,5.96
2023-01-15T10:46:01.050Z,6.00
2023-01-15T10:48:39.721Z,6.03
2023-01-15T10:51:18.885Z,6.06
2023-01-15T10:53:56.494Z,6.08
2023-01-15T10:56:39.167Z,6.14
2023-01-15T10:59:22.313Z,6.21
2023-01-15T11:01:57.212Z,6.24
2023-01-15T11:04:32.959Z,6.25
2023-01-15T11:07:05.669Z,6.29
2023-01-15T11:09:39.450Z,6.30
2023-01-15T11:12:45.111Z,6.33
2023-01-15T11:15:41.330Z,6.35
2023-01-15T11:18:41.297Z,6.36
2023-01-15T11:21:19.702Z,6.36
2023-01-15T11:23:54.495Z,6.36
2023-01-15T11:26:29.911Z,6.43
2023-01-15T11:29:14.268Z,6.47
2023-01-15T11:31:46.560Z,6.48
2023-01-15T11:34:24.346Z,6.48
2023-01-15T11:37:06.465Z,6.46
2023-01-15T11:39:39.109Z,6.49
2023-01-15T11:42:37.224Z,6.50
2023-01-15T11:45:36.102Z,6.49
2023-01-15T11:48:36.087Z,6.56
2023-01-15T11:51:13.044Z,6.58
2023-01-15T11:53:50.896Z,6.60
2023-01-15T11:56:31.359Z,6.62
2023-01-15T11:59:10.613Z,6.65
2023-01-15T12:01:54.943Z,6.69
2023-01-15T12:04:32.299Z,6.69
2023-01-15T12:07:05.579Z,6.74
2023-01-15T12:10:07.621Z,6.76
2023-01-15T12:12:55.466Z,6.74
2023-01-15T12:15:42.852Z,6.72
2023-01-15T12:18:49.922Z,6.71
2023-01-15T12:21:44.612Z,6.64
2023-01-15T12:24:36.885Z,6.64
2023-01-15T12:27:30.270Z,6.66
2023-01-15T12:30:11.340Z,6.66
2023-01-15T12:32:48.075Z,6.64
2023-01-15T12:35:29.794Z,6.68
2023-01-15T12:38:12.001Z,6.71
2023-01-15T12:40:50.331Z,6.72
2023-01-15T12:43:44.803Z,6.76
2023-01-15T12:46:20.977Z,6.80
2023-01-15T12:48:59.611Z,6.82
2023-01-15T12:51:41.969Z,6.85
2023-01-15T12:54:20.796Z,6.89
2023-01-15T12:57:01.738Z,6.92
2023-01-15T12:59:40.795Z,6.92
2023-01-15T13:02:23.487Z,6.94
2023-01-15T13:05:00.357Z,6.90
2023-01-15T13:07:38.642Z,6.84
2023-01-15T13:10:20.420Z,6.84
2023-01-15T13:12:52.978Z,6.81
2023-01-15T13:15:31.983Z,6.78
2023-01-15T13:18:15.123Z,6.71
2023-01-15T13:20:51.771Z,6.70
2023-01-15T13:23:42.580Z,6.71
2023-01-15T13:26:27.697Z,6.69
2023-01-15T13:29:11.457Z,6.68
2023-01-15T13:32:06.601Z,6.69
2023-01-15T13:34:45.388Z,6.69
2023-01-15T13:37:25.703Z,6.71
2023-01-15T13:40:03.659Z,6.72
2023-01-15T13:42:38.131Z,6.74
2023-01-15T13:48:13.808Z,6.81
2023-01-15T13:50:55.281Z,6.80
2023-01-15T13:53:31.871Z,6.75
2023-01-15T13:56:07.615Z,6.68
2023-01-15T13:58:52.881Z,6.62
2023-01-15T14:01:33.617Z,6.59
2023-01-15T14:04:15.366Z,6.57
2023-01-15T14:06:49.032Z,6.53
2023-01-15T14:09:34.451Z,6.49
2023-01-15T14:12:18.218Z,6.47
2023-01-15T14:15:17.647Z,6.48
2023-01-15T14:18:09.701Z,6.53
2023-01-15T14:20:53.910Z,6.54
2023-01-15T14:23:53.635Z,6.58
2023-01-15T14:26:36.852Z,6.58
2023-01-15T14:29:29.359Z,6.53
2023-01-15T14:32:10.720Z,6.49
2023-01-15T14:34:44.612Z,6.50
2023-01-15T14:37:30.578Z,6.54
2023-01-15T14:40:06.279Z,6.55
2023-01-15T14:42:59.609Z,6.59
2023-01-15T14:45:36.300Z,6.63
2023-01-15T14:48:19.654Z,6.65
2023-01-15T14:50:54.112Z,6.65
2023-01-15T14:53:38.537Z,6.66
2023-01-15T14:56:19.525Z,6.64
2023-01-15T14:59:02.656Z,6.65
2023-01-15T15:01:43.500Z,6.68
2023-01-15T15:04:25.694Z,6.67
2023-01-15T15:07:01.824Z,6.69
2023-01-15T15:09:43.582Z,6.71
2023-01-15T15:12:27.253Z,6.71
2023-01-15T15:15:08.908Z,6.72
2023-01-15T15:17:54.553Z,6.76
2023-01-15T15:20:40.477Z,6.78
2023-01-15T15:23:18.551Z,6.75
2023-01-15T15:25:58.929Z,6.74
2023-01-15T15:28:32.061Z,6.73
2023-01-15T15:31:04.547Z,6.73
2023-01-15T15:33:42.372Z,6.72
2023-01-15T15:36:15.160Z,6.70
2023-01-15T15:38:56.851Z,6.71
2023-01-15T15:41:50.176Z,6.70
2023-01-15T15:44:50.196Z,6.71
2023-01-15T15:47:38.382Z,6.73
2023-01-15T15:50:22.391Z,6.73
2023-01-15T15:52:55.758Z,6.72
2023-01-15T15:55:33.577Z,6.71
2023-01-15T15:58:07.411Z,6.72
2023-01-15T16:00:43.418Z,6.69
2023-01-15T16:03:20.428Z,6.65
2023-01-15T16:06:01.250Z,6.63
2023-01-15T16:08:36.154Z,6.62
2023-01-15T16:11:13.238Z,6.63
2023-01-15T16:13:49.503Z,6.63
2023-01-15T16:16:23.039Z,6.64
2023-01-15T16:18:57.317Z,6.62
2023-01-15T16:21:33.493Z,6.63
2023-01-15T16:24:08.369Z,6.64
2023-01-15T16:26:43.850Z,6.67
2023-01-15T16:29:21.774Z,6.69
2023-01-15T16:32:10.938Z,6.71
2023-01-15T16:34:48.382Z,6.71
2023-01-15T16:37:30.773Z,6.71
2023-01-15T16:40:05.902Z,6.74
2023-01-15T16:42:43.300Z,6.74
2023-01-15T16:45:26.056Z,6.74
2023-01-15T16:48:23.964Z,6.75
2023-01-15T16:50:56.629Z,6.77
2023-01-15T16:53:41.124Z,6.79
2023-01-15T16:56:29.011Z,6.79
2023-01-15T16:59:01.242Z,6.80
2023-01-15T17:01:42.030Z,6.81
2023-01-15T17:04:29.713Z,6.82
2023-01-15T17:07:05.176Z,6.82
2023-01-15T17:09:39.135Z,6.84
2023-01-15T17:12:20.134Z,6.84
2023-01-15T17:14:52.385Z,6.85
2023-01-15T17:17:30.766Z,6.84
2023-01-15T17:20:03.180Z,6.84
2023-01-15T17:22:36.462Z,6.81
2023-01-15T17:25:26.267Z,6.77
2023-01-15T17:27:59.604Z,6.74
2023-01-15T17:30:33.194Z,6.69
2023-01-15T17:33:07.814Z,6.61
2023-01-15T17:35:42.677Z,6.53
2023-01-15T17:38:14.983Z,6.47
2023-01-15T17:40:47.412Z,6.44
2023-01-15T17:43:19.763Z,6.44
2023-01-15T17:45:52.098Z,6.42
2023-01-15T17:48:24.354Z,6.40
2023-01-15T17:51:04.676Z,6.38
2023-01-15T17:53:37.104Z,6.35
2023-01-15T17:56:28.120Z,6.31
2023-01-15T17:59:29.179Z,6.29
2023-01-15T18:02:19.219Z,6.25
2023-01-15T18:05:12.363Z,6.23
2023-01-15T18:07:46.531Z,6.22
2023-01-15T18:10:21.244Z,6.20
2023-01-15T18:12:53.554Z,6.19
2023-01-15T18:15:25.753Z,6.15
2023-01-15T18:17:58.101Z,6.12
2023-01-15T18:20:31.795Z,6.09
2023-01-15T18:23:07.167Z,6.06
2023-01-15T18:25:46.068Z,6.03
2023-01-15T18:28:18.341Z,6.02
2023-01-15T18:30:51.328Z,6.00
2023-01-15T18:33:23.530Z,5.97
2023-01-15T18:36:05.179Z,5.95
2023-01-15T18:38:40.471Z,5.93
2023-01-15T18:41:37.435Z,5.90
2023-01-15T18:44:31.135Z,5.89
2023-01-15T18:47:05.764Z,5.88
2023-01-15T18:49:38.005Z,5.88
2023-01-15T18:52:27.244Z,5.87
2023-01-15T18:54:59.550Z,5.85
2023-01-15T18:57:33.316Z,5.84
2023-01-15T19:00:06.176Z,5.83
2023-01-15T19:02:40.096Z,5.84
2023-01-15T19:05:15.191Z,5.86
2023-01-15T19:07:48.441Z,5.88
2023-01-15T19:10:21.969Z,5.89
2023-01-15T19:12:54.152Z,5.89
2023-01-15T19:15:43.768Z,5.90
2023-01-15T19:18:33.273Z,5.93
2023-01-15T19:21:12.949Z,5.98
2023-01-15T19:23:46.273Z,6.04
2023-01-15T19:26:18.598Z,6.09
2023-01-15T19:28:50.807Z,6.14
2023-01-15T19:31:39.388Z,6.15
2023-01-15T19:34:32.708Z,6.17
2023-01-15T19:37:04.413Z,6.23
2023-01-15T19:39:36.613Z,6.29
2023-01-15T19:42:28.969Z,6.33
2023-01-15T19:45:18.757Z,6.40
2023-01-15T19:48:09.005Z,6.48
2023-01-15T19:50:42.857Z,6.52
2023-01-15T19:53:15.986Z,6.54
2023-01-15T19:55:48.230Z,6.56
2023-01-15T19:58:20.816Z,6.57
2023-01-15T20:00:53.478Z,6.59
2023-01-15T20:03:28.464Z,6.59
2023-01-15T20:06:00.812Z,6.61
2023-01-15T20:08:35.232Z,6.56
2023-01-15T20:11:10.962Z,6.58
2023-01-15T20:13:53.953Z,6.59
2023-01-15T20:16:28.237Z,6.57
2023-01-15T20:19:00.503Z,6.58
2023-01-15T20:21:32.832Z,6.55
2023-01-15T20:24:05.183Z,6.47
2023-01-15T20:26:37.919Z,6.47
2023-01-15T20:29:10.098Z,6.45
2023-01-15T20:31:42.500Z,6.45
2023-01-15T20:34:14.695Z,6.47
2023-01-15T20:36:47.758Z,6.47
2023-01-15T20:39:19.966Z,6.45
2023-01-15T20:42:09.607Z,6.41
2023-01-15T20:44:56.944Z,6.39
2023-01-15T20:47:47.943Z,6.35
2023-01-15T20:50:20.085Z,6.25
2023-01-15T20:52:53.826Z,6.21
2023-01-15T20:55:31.122Z,6.15
2023-01-15T20:58:05.429Z,6.07
2023-01-15T21:00:37.726Z,6.02
2023-01-15T21:03:11.250Z,5.98
2023-01-15T21:05:43.659Z,5.92
2023-01-15T21:08:15.838Z,5.86
2023-01-15T21:10:52.914Z,5.83
2023-01-15T21:13:25.126Z,5.80
2023-01-15T21:15:59.120Z,5.74
2023-01-15T21:18:32.953Z,5.70
2023-01-15T21:21:11.061Z,5.66
2023-01-15T21:23:45.569Z,5.64
2023-01-15T21:26:18.766Z,5.60
2023-01-15T21:28:53.684Z,5.56
2023-01-15T21:31:25.989Z,5.52
2023-01-15T21:33:58.990Z,5.48
2023-01-15T21:36:31.229Z,5.46
2023-01-15T21:39:05.234Z,5.45
2023-01-15T21:41:54.687Z,5.46
2023-01-15T21:44:34.128Z,5.46
2023-01-15T21:47:09.614Z,5.44
2023-01-15T21:49:42.759Z,5.45
2023-01-15T21:52:17.338Z,5.45
2023-01-15T21:54:50.333Z,5.45
2023-01-15T21:57:22.628Z,5.47
2023-01-15T21:59:54.841Z,5.49
2023-01-15T22:02:29.936Z,5.49
2023-01-15T22:05:02.378Z,5.50
2023-01-15T22:07:35.001Z,5.52
2023-01-15T22:10:09.289Z,5.54
2023-01-15T22:12:43.279Z,5.56
2023-01-15T22:15:16.808Z,5.58
2023-01-15T22:17:53.871Z,5.58
2023-01-15T22:20:26.109Z,5.59
2023-01-15T22:22:58.512Z,5.62
2023-01-15T22:25:30.795Z,5.62
2023-01-15T22:28:02.918Z,5.59
2023-01-15T22:30:37.853Z,5.58
2023-01-15T22:33:10.980Z,5.58
2023-01-15T22:35:43.213Z,5.57
2023-01-15T22:38:15.782Z,5.58
2023-01-15T22:40:48.157Z,5.59
2023-01-15T22:43:20.425Z,5.57
2023-01-15T22:45:52.679Z,5.58
2023-01-15T22:48:24.934Z,5.59
2023-01-15T22:50:57.107Z,5.60
2023-01-15T22:53:29.302Z,5.59
2023-01-15T22:56:01.997Z,5.56
2023-01-15T22:58:34.329Z,5.50
2023-01-15T23:01:06.756Z,5.46
2023-01-15T23:03:39.509Z,5.47
2023-01-15T23:06:13.783Z,5.48
2023-01-15T23:08:46.089Z,5.49
2023-01-15T23:11:18.950Z,5.50
2023-01-15T23:13:51.122Z,5.50
2023-01-15T23:16:23.895Z,5.51
2023-01-15T23:18:56.153Z,5.51
2023-01-15T23:21:29.549Z,5.49
2023-01-15T23:24:03.618Z,5.47
2023-01-15T23:26:37.267Z,5.42
2023-01-15T23:29:09.758Z,5.41
2023-01-15T23:31:42.129Z,5.41
2023-01-15T23:34:14.278Z,5.41
2023-01-15T23:36:46.566Z,5.41
2023-01-15T23:39:18.850Z,5.44
2023-01-15T23:42:08.512Z,5.46
2023-01-15T23:44:58.074Z,5.48
2023-01-15T23:47:30.295Z,5.49
2023-01-15T23:50:03.492Z,5.48
2023-01-15T23:52:35.807Z,5.39
2023-01-15T23:55:08.900Z,5.31
2023-01-15T23:57:41.057Z,5.25
